Terminal Aerodrome Forecast
Issued by NWS

Home | Current Version | Previous Version | Text Only | Print | Product List | Glossary On
Versions: 1 2 3 4 5 6 7 8 9 10 11 12
000
FTUS43 KPAH 030520
TAFOWB
TAF
KOWB 030520Z 0306/0406 00000KT P6SM SCT035
     FM031500 06005KT P6SM SCT150 BKN250
     FM032100 04005KT P6SM SCT070 BKN150
     FM040300 04003KT P6SM SCT035 BKN070=

USA.gov is the U.S. government's official web portal to all federal, state and local government web resources and services.